FYKT/KMP METAR and TAF weather

Enter ICAO airport designator
Station Type Date Time Source
FYKT METAR 2020/01/27 13:00 UTC NOAA

FYKT 271300Z 26004KT CAVOK 33/M00 Q1019


Station Type Date Time Source
FYKT Decoded METAR 2020/01/27 13:00 UTC NOAA

Keetmanshoop, Namibia (FYKT) 26-32S 018-07E 1100M
Jan 27, 2020 - 08:00 AM EST / 2020.01.27 1300 UTC
Wind: from the W (260 degrees) at 5 MPH (4 KT):0
Visibility: greater than 7 mile(s):0
Temperature: 91 F (33 C)
Dew Point: 32 F (0 C)
Relative Humidity: 12%
Pressure (altimeter): 30.09 in. Hg (1019 hPa)
ob: FYKT 271300Z 26004KT CAVOK 33/M00 Q1019
cycle: 13

Station Type Date Time Source
FYKT TAF 2020/01/27 12:01 UTC NOAA

TAF FYKT 271000Z 2712/2812 04008KT CAVOK
BECMG 2714/2716 31008KT
BECMG 2720/2722 22006KT

Example: see airport list